createdAt,value
2017-11-15T00:00:59.768Z,23.00
2017-11-15T00:03:27.840Z,23.92
2017-11-15T00:05:56.319Z,21.55
2017-11-15T00:08:24.396Z,23.08
2017-11-15T00:10:52.476Z,31.83
2017-11-15T00:13:21.299Z,27.45
2017-11-15T00:15:49.387Z,21.33
2017-11-15T00:18:17.442Z,24.95
2017-11-15T00:20:46.652Z,24.92
2017-11-15T00:23:14.722Z,21.10
2017-11-15T00:25:42.783Z,23.27
2017-11-15T00:28:10.862Z,25.85
2017-11-15T00:30:38.930Z,22.52
2017-11-15T00:33:06.996Z,26.58
2017-11-15T00:35:35.070Z,24.45
2017-11-15T00:38:03.131Z,19.25
2017-11-15T00:40:31.216Z,25.05
2017-11-15T00:42:59.296Z,30.23
2017-11-15T00:45:27.360Z,21.83
2017-11-15T00:47:55.436Z,25.40
2017-11-15T00:50:23.499Z,20.62
2017-11-15T00:52:51.591Z,28.12
2017-11-15T00:55:19.654Z,23.83
2017-11-15T00:57:47.715Z,21.92
2017-11-15T01:00:15.800Z,33.45
2017-11-15T01:02:44.255Z,27.13
2017-11-15T01:05:12.365Z,33.40
2017-11-15T01:07:40.423Z,26.92
2017-11-15T01:10:08.483Z,30.27
2017-11-15T01:12:36.591Z,27.42
2017-11-15T01:15:04.643Z,24.42
2017-11-15T01:17:32.700Z,26.30
2017-11-15T01:20:01.164Z,25.70
2017-11-15T01:22:30.001Z,23.73
2017-11-15T01:24:58.852Z,24.60
2017-11-15T01:27:26.919Z,27.33
2017-11-15T01:29:55.004Z,28.20
2017-11-15T01:32:23.063Z,24.17
2017-11-15T01:34:51.146Z,31.05
2017-11-15T01:37:19.208Z,27.75
2017-11-15T01:39:47.273Z,30.42
2017-11-15T01:42:16.104Z,24.92
2017-11-15T01:44:44.183Z,21.90
2017-11-15T01:47:12.262Z,22.33
2017-11-15T01:49:40.326Z,29.75
2017-11-15T01:52:08.498Z,32.45
2017-11-15T01:54:37.284Z,22.30
2017-11-15T01:57:05.351Z,23.87
2017-11-15T01:59:33.431Z,23.27
2017-11-15T02:02:01.502Z,24.80
2017-11-15T02:04:29.558Z,23.33
2017-11-15T02:06:58.029Z,18.60
2017-11-15T02:09:26.097Z,20.55
2017-11-15T02:11:54.176Z,17.35
2017-11-15T02:14:22.226Z,23.70
2017-11-15T02:16:50.302Z,26.42
2017-11-15T02:19:24.017Z,25.60
2017-11-15T02:21:52.101Z,24.12
2017-11-15T02:24:20.175Z,27.55
2017-11-15T02:26:48.239Z,36.05
2017-11-15T02:29:16.719Z,24.77
2017-11-15T02:31:44.779Z,26.08
2017-11-15T02:34:12.835Z,27.95
2017-11-15T02:36:42.415Z,23.73
2017-11-15T02:39:11.982Z,31.52
2017-11-15T02:41:40.457Z,29.25
2017-11-15T02:44:09.308Z,27.92
2017-11-15T02:46:37.367Z,27.80
2017-11-15T02:49:05.454Z,28.00
2017-11-15T02:51:33.915Z,25.30
2017-11-15T02:54:02.072Z,27.02
2017-11-15T02:56:30.858Z,33.25
2017-11-15T02:58:59.697Z,36.72
2017-11-15T03:01:29.273Z,30.08
2017-11-15T03:03:58.112Z,33.50
2017-11-15T03:06:26.218Z,27.87
2017-11-15T03:08:55.023Z,29.77
2017-11-15T03:11:23.181Z,30.05
2017-11-15T03:13:51.968Z,32.72
2017-11-15T03:16:20.028Z,29.48
2017-11-15T03:18:48.494Z,25.37
2017-11-15T03:21:16.568Z,28.70
2017-11-15T03:23:44.635Z,33.75
2017-11-15T03:26:12.715Z,34.08
2017-11-15T03:28:40.780Z,27.55
2017-11-15T03:31:08.869Z,26.60
2017-11-15T03:33:36.924Z,34.03
2017-11-15T03:36:05.019Z,30.67
2017-11-15T03:38:33.079Z,32.33
2017-11-15T03:41:01.135Z,29.58
2017-11-15T03:43:30.702Z,29.33
2017-11-15T03:45:58.788Z,31.70
2017-11-15T03:48:27.619Z,30.23
2017-11-15T03:50:56.079Z,26.73
2017-11-15T03:53:24.150Z,36.25
2017-11-15T03:55:52.229Z,31.27
2017-11-15T03:58:20.304Z,32.83
2017-11-15T04:00:48.758Z,31.02
2017-11-15T04:03:17.594Z,30.80
2017-11-15T04:05:46.426Z,29.50
2017-11-15T04:08:14.505Z,25.75
2017-11-15T04:10:42.559Z,30.08
2017-11-15T04:13:10.649Z,25.10
2017-11-15T04:15:39.475Z,30.50
2017-11-15T04:18:07.530Z,30.55
2017-11-15T04:20:35.598Z,27.55
2017-11-15T04:23:04.438Z,31.12
2017-11-15T04:25:32.507Z,26.10
2017-11-15T04:28:00.978Z,23.35
2017-11-15T04:30:29.050Z,27.13
2017-11-15T04:32:57.117Z,30.25
2017-11-15T04:35:25.938Z,31.73
2017-11-15T04:37:54.014Z,26.12
2017-11-15T04:40:22.078Z,21.60
2017-11-15T04:42:50.146Z,31.73
2017-11-15T04:45:18.206Z,23.95
2017-11-15T04:47:46.675Z,27.08
2017-11-15T04:50:14.739Z,28.70
2017-11-15T04:52:42.811Z,24.98
2017-11-15T04:55:10.878Z,24.25
2017-11-15T04:57:38.960Z,25.92
2017-11-15T05:00:07.788Z,29.30
2017-11-15T05:02:35.872Z,23.87
2017-11-15T05:05:05.433Z,32.25
2017-11-15T05:07:34.280Z,24.55
2017-11-15T05:10:02.760Z,27.30
2017-11-15T05:12:32.332Z,21.05
2017-11-15T05:15:00.390Z,26.55
2017-11-15T05:17:28.468Z,29.27
2017-11-15T05:19:56.552Z,25.48
2017-11-15T05:22:24.610Z,23.77
2017-11-15T05:24:53.828Z,21.60
2017-11-15T05:27:21.895Z,21.48
2017-11-15T05:29:49.976Z,22.10
2017-11-15T05:32:18.040Z,23.23
2017-11-15T05:34:46.508Z,23.35
2017-11-15T05:37:14.587Z,21.90
2017-11-15T05:39:42.651Z,26.05
2017-11-15T05:42:10.711Z,22.15
2017-11-15T05:44:38.789Z,24.33
2017-11-15T05:47:06.843Z,33.67
2017-11-15T05:49:34.919Z,35.50
2017-11-15T05:52:02.999Z,28.15
2017-11-15T05:54:31.099Z,31.42
2017-11-15T05:56:59.156Z,29.17
2017-11-15T05:59:27.215Z,32.10
2017-11-15T06:01:55.294Z,31.52
2017-11-15T06:04:23.355Z,24.05
2017-11-15T06:06:51.436Z,35.05
2017-11-15T06:09:19.512Z,31.62
2017-11-15T06:11:47.712Z,26.50
2017-11-15T06:14:15.708Z,29.67
2017-11-15T06:16:45.147Z,23.58
2017-11-15T06:19:13.095Z,25.95
2017-11-15T06:21:41.131Z,26.62
2017-11-15T06:24:09.176Z,22.25
2017-11-15T06:26:37.286Z,32.53
2017-11-15T06:29:06.716Z,31.50
2017-11-15T06:31:34.748Z,33.17
2017-11-15T06:34:02.777Z,22.05
2017-11-15T06:36:30.897Z,27.35
2017-11-15T06:38:58.899Z,25.45
2017-11-15T06:41:26.984Z,20.02
2017-11-15T06:43:55.816Z,19.60
2017-11-15T06:46:23.966Z,20.52
2017-11-15T06:48:53.135Z,23.70
2017-11-15T06:51:21.361Z,23.30
2017-11-15T06:53:50.275Z,22.75
2017-11-15T06:56:19.848Z,26.35
2017-11-15T06:58:48.316Z,22.52
2017-11-15T07:01:17.148Z,20.95
2017-11-15T07:03:45.991Z,22.85
2017-11-15T07:06:14.467Z,25.35
2017-11-15T07:08:42.531Z,28.00
2017-11-15T07:11:12.113Z,31.00
2017-11-15T07:13:40.576Z,34.20
2017-11-15T07:16:08.636Z,27.90
2017-11-15T07:18:36.712Z,25.27
2017-11-15T07:21:05.173Z,28.50
2017-11-15T07:23:33.242Z,28.00
2017-11-15T07:26:01.304Z,26.98
2017-11-15T07:28:29.375Z,27.48
2017-11-15T07:30:57.446Z,26.17
2017-11-15T07:33:25.534Z,35.10
2017-11-15T07:35:54.723Z,36.05
2017-11-15T07:38:22.788Z,36.67
2017-11-15T07:40:50.887Z,37.03
2017-11-15T07:43:18.944Z,33.47
2017-11-15T07:45:46.999Z,33.42
2017-11-15T07:48:15.076Z,36.03
2017-11-15T07:50:43.139Z,31.12
2017-11-15T07:53:11.272Z,24.23
2017-11-15T07:55:39.336Z,32.03
2017-11-15T07:58:07.383Z,27.60
2017-11-15T08:00:35.460Z,23.45
2017-11-15T08:03:03.519Z,24.58
2017-11-15T08:05:31.608Z,34.47
2017-11-15T08:07:59.663Z,30.60
2017-11-15T08:10:27.725Z,25.62
2017-11-15T08:12:56.559Z,33.33
2017-11-15T08:15:25.391Z,31.70
2017-11-15T08:17:53.471Z,32.50
2017-11-15T08:20:21.535Z,35.45
2017-11-15T08:22:50.355Z,49.17
2017-11-15T08:25:19.774Z,37.58
2017-11-15T08:27:48.144Z,38.67
2017-11-15T08:30:16.224Z,39.55
2017-11-15T08:32:44.311Z,37.15
2017-11-15T08:35:13.142Z,42.22
2017-11-15T08:37:41.200Z,55.78
2017-11-15T08:40:09.271Z,34.13
2017-11-15T08:42:37.337Z,38.33
2017-11-15T08:45:06.174Z,41.40
2017-11-15T08:47:34.252Z,35.63
2017-11-15T08:50:02.319Z,39.58
2017-11-15T08:52:30.407Z,36.28
2017-11-15T08:54:58.476Z,37.97
2017-11-15T08:57:27.888Z,57.78
2017-11-15T08:59:56.643Z,41.60
2017-11-15T09:02:24.703Z,43.45
2017-11-15T09:04:54.295Z,37.67
2017-11-15T09:07:22.750Z,43.92
2017-11-15T09:09:51.608Z,37.75
2017-11-15T09:12:19.673Z,45.30
2017-11-15T09:14:47.735Z,40.60
2017-11-15T09:17:16.576Z,41.25
2017-11-15T09:19:45.405Z,48.75
2017-11-15T09:22:13.484Z,46.35
2017-11-15T09:24:41.550Z,36.97
2017-11-15T09:27:09.611Z,42.25
2017-11-15T09:29:37.686Z,34.05
2017-11-15T09:32:05.750Z,38.45
2017-11-15T09:34:33.819Z,32.22
2017-11-15T09:37:03.026Z,33.05
2017-11-15T09:39:31.091Z,32.95
2017-11-15T09:41:59.163Z,36.47
2017-11-15T09:44:27.223Z,31.55
2017-11-15T09:46:56.444Z,28.98
2017-11-15T09:49:25.308Z,28.67
2017-11-15T09:51:53.344Z,27.52
2017-11-15T09:54:21.421Z,27.25
2017-11-15T09:56:49.488Z,25.85
2017-11-15T09:59:17.559Z,27.45
2017-11-15T10:01:45.632Z,25.98
2017-11-15T10:04:14.091Z,25.77
2017-11-15T10:06:42.159Z,28.20
2017-11-15T10:09:10.231Z,24.30
2017-11-15T10:11:38.712Z,23.52
2017-11-15T10:14:06.768Z,27.13
2017-11-15T10:16:34.849Z,20.80
2017-11-15T10:19:02.908Z,21.92
2017-11-15T10:21:30.996Z,26.00
2017-11-15T10:23:59.071Z,20.95
2017-11-15T10:26:27.144Z,18.00
2017-11-15T10:28:55.212Z,16.58
2017-11-15T10:31:23.276Z,17.67
2017-11-15T10:33:51.346Z,17.30
2017-11-15T10:36:19.420Z,16.20
2017-11-15T10:38:47.503Z,16.90
2017-11-15T10:41:15.576Z,25.85
2017-11-15T10:43:43.651Z,18.35
2017-11-15T10:46:11.740Z,15.18
2017-11-15T10:48:39.809Z,17.62
2017-11-15T10:51:07.887Z,16.92
2017-11-15T10:53:35.952Z,19.50
2017-11-15T10:56:04.038Z,19.37
2017-11-15T10:58:32.111Z,16.55
2017-11-15T11:01:00.183Z,18.95
2017-11-15T11:03:28.259Z,19.58
2017-11-15T11:05:57.096Z,17.35
2017-11-15T11:08:25.941Z,18.33
2017-11-15T11:10:54.403Z,20.50
2017-11-15T11:13:22.487Z,18.58
2017-11-15T11:15:50.952Z,19.10
2017-11-15T11:18:19.025Z,19.45
2017-11-15T11:20:47.103Z,20.45
2017-11-15T11:23:15.161Z,19.20
2017-11-15T11:25:43.258Z,22.90
2017-11-15T11:28:12.824Z,20.15
2017-11-15T11:30:40.903Z,17.33
2017-11-15T11:33:08.963Z,19.30
2017-11-15T11:35:37.806Z,18.85
2017-11-15T11:38:06.644Z,19.70
2017-11-15T11:40:34.732Z,20.33
2017-11-15T11:43:02.821Z,21.27
2017-11-15T11:45:30.896Z,23.27
2017-11-15T11:47:58.982Z,22.45
2017-11-15T11:50:27.819Z,19.40
2017-11-15T11:52:55.893Z,20.20
2017-11-15T11:55:23.977Z,17.12
2017-11-15T11:57:52.045Z,20.98
2017-11-15T12:00:21.522Z,19.90
2017-11-15T12:02:49.596Z,18.70
2017-11-15T12:05:17.670Z,21.25
2017-11-15T12:07:45.748Z,23.48
2017-11-15T12:10:13.820Z,21.37
2017-11-15T12:12:41.896Z,20.37
2017-11-15T12:15:09.974Z,25.20
2017-11-15T12:17:38.880Z,20.40
2017-11-15T12:20:06.904Z,20.12
2017-11-15T12:22:34.967Z,21.17
2017-11-15T12:25:03.816Z,20.90
2017-11-15T12:27:31.881Z,26.85
2017-11-15T12:29:59.973Z,24.83
2017-11-15T12:32:28.037Z,27.02
2017-11-15T12:34:56.092Z,23.40
2017-11-15T12:37:24.165Z,20.80
2017-11-15T12:39:52.992Z,19.77
2017-11-15T12:42:21.836Z,19.17
2017-11-15T12:44:50.664Z,18.35
2017-11-15T12:47:18.747Z,19.58
2017-11-15T12:49:47.580Z,24.17
2017-11-15T12:52:15.657Z,20.50
2017-11-15T12:54:44.114Z,20.85
2017-11-15T12:57:12.203Z,23.15
2017-11-15T12:59:40.263Z,21.95
2017-11-15T13:02:08.323Z,23.25
2017-11-15T13:04:37.791Z,26.45
2017-11-15T13:07:05.761Z,22.67
2017-11-15T13:09:33.840Z,25.33
2017-11-15T13:12:01.909Z,19.95
2017-11-15T13:14:29.991Z,24.08
2017-11-15T13:16:58.055Z,28.50
2017-11-15T13:19:26.142Z,25.08
2017-11-15T13:21:54.959Z,25.77
2017-11-15T13:24:23.031Z,18.15
2017-11-15T13:26:51.091Z,26.85
2017-11-15T13:29:19.167Z,24.12
2017-11-15T13:31:47.239Z,21.42
2017-11-15T13:34:15.321Z,20.00
2017-11-15T13:36:43.390Z,18.73
2017-11-15T13:39:11.446Z,24.95
2017-11-15T13:41:40.888Z,23.12
2017-11-15T13:44:08.851Z,22.70
2017-11-15T13:46:38.060Z,21.12
2017-11-15T13:49:06.124Z,19.42
2017-11-15T13:51:34.194Z,24.52
2017-11-15T13:54:02.256Z,20.58
2017-11-15T13:56:30.331Z,26.65
2017-11-15T13:58:59.151Z,20.35
2017-11-15T14:01:27.236Z,21.70
2017-11-15T14:03:56.814Z,21.25
2017-11-15T14:06:25.277Z,25.85
2017-11-15T14:08:54.702Z,21.90
2017-11-15T14:11:22.682Z,20.92
2017-11-15T14:13:51.152Z,21.35
2017-11-15T14:16:19.208Z,20.25
2017-11-15T14:18:47.279Z,24.15
2017-11-15T14:21:15.345Z,22.95
2017-11-15T14:23:43.420Z,23.40
2017-11-15T14:26:11.499Z,17.95
2017-11-15T14:28:40.914Z,19.12
2017-11-15T14:31:10.407Z,24.00
2017-11-15T14:33:38.472Z,20.02
2017-11-15T14:36:08.049Z,19.87
2017-11-15T14:38:36.892Z,18.45
2017-11-15T14:41:04.956Z,16.65
2017-11-15T14:43:33.028Z,19.87
2017-11-15T14:46:01.109Z,20.30
2017-11-15T14:48:29.166Z,22.08
2017-11-15T14:50:57.657Z,18.65
2017-11-15T14:53:25.698Z,19.67
2017-11-15T14:55:53.768Z,15.65
2017-11-15T14:58:21.827Z,20.55
2017-11-15T15:00:50.295Z,18.77
2017-11-15T15:03:19.136Z,22.98
2017-11-15T15:05:47.199Z,15.75
2017-11-15T15:08:15.283Z,17.15
2017-11-15T15:10:43.345Z,14.02
2017-11-15T15:13:11.411Z,25.48
2017-11-15T15:15:39.488Z,16.60
2017-11-15T15:18:08.340Z,16.55
2017-11-15T15:20:37.204Z,18.33
2017-11-15T15:23:05.263Z,17.08
2017-11-15T15:25:33.343Z,18.77
2017-11-15T15:28:01.398Z,18.27
2017-11-15T15:30:29.487Z,19.12
2017-11-15T15:32:57.551Z,19.35
2017-11-15T15:35:26.751Z,20.52
2017-11-15T15:37:54.848Z,15.18
2017-11-15T15:40:22.899Z,17.00
2017-11-15T15:42:50.963Z,18.20
2017-11-15T15:45:19.039Z,19.85
2017-11-15T15:47:48.612Z,16.50
2017-11-15T15:50:16.688Z,22.10
2017-11-15T15:52:44.747Z,21.25
2017-11-15T15:55:12.820Z,20.23
2017-11-15T15:57:40.887Z,14.73
2017-11-15T16:00:09.344Z,18.17
2017-11-15T16:02:37.811Z,14.40
2017-11-15T16:05:05.895Z,18.20
2017-11-15T16:07:33.963Z,17.48
2017-11-15T16:10:02.019Z,16.77
2017-11-15T16:12:30.091Z,17.10
2017-11-15T16:14:58.183Z,25.98
2017-11-15T16:17:27.013Z,21.50
2017-11-15T16:19:55.071Z,23.02
2017-11-15T16:22:23.560Z,23.95
2017-11-15T16:24:51.622Z,28.98
2017-11-15T16:27:21.033Z,20.08
2017-11-15T16:29:50.154Z,26.65
2017-11-15T16:32:18.979Z,21.33
2017-11-15T16:34:47.059Z,20.17
2017-11-15T16:37:15.892Z,24.02
2017-11-15T16:39:43.968Z,20.02
2017-11-15T16:42:12.050Z,21.08
2017-11-15T16:44:40.111Z,21.30
2017-11-15T16:47:08.187Z,19.55
2017-11-15T16:49:37.020Z,27.33
2017-11-15T16:52:05.100Z,18.70
2017-11-15T16:54:33.930Z,18.37
2017-11-15T16:57:03.139Z,20.90
2017-11-15T16:59:31.216Z,16.92
2017-11-15T17:01:59.274Z,20.00
2017-11-15T17:04:27.331Z,15.00
2017-11-15T17:06:55.424Z,15.18
2017-11-15T17:09:23.487Z,14.98
2017-11-15T17:11:51.547Z,14.75
2017-11-15T17:14:19.622Z,14.55
2017-11-15T17:16:47.684Z,14.07
2017-11-15T17:19:15.752Z,15.18
2017-11-15T17:21:43.826Z,20.23
2017-11-15T17:24:11.892Z,18.27
2017-11-15T17:26:40.060Z,26.12
2017-11-15T17:29:08.883Z,17.08
2017-11-15T17:31:36.948Z,19.98
2017-11-15T17:34:05.027Z,19.10
2017-11-15T17:36:33.107Z,20.58
2017-11-15T17:39:01.178Z,18.40
2017-11-15T17:41:29.264Z,21.45
2017-11-15T17:43:58.100Z,23.85
2017-11-15T17:46:26.959Z,21.33
2017-11-15T17:48:55.024Z,23.92
2017-11-15T17:51:23.087Z,27.58
2017-11-15T17:53:51.931Z,32.15
2017-11-15T17:56:20.003Z,32.30
2017-11-15T17:58:48.100Z,36.97
2017-11-15T18:01:16.151Z,39.90
2017-11-15T18:03:44.214Z,31.98
2017-11-15T18:06:13.059Z,34.47
2017-11-15T18:08:41.119Z,37.47
2017-11-15T18:11:09.180Z,34.47
2017-11-15T18:13:38.609Z,20.67
2017-11-15T18:16:06.583Z,19.50
2017-11-15T18:18:34.675Z,24.40
2017-11-15T18:21:03.143Z,17.80
2017-11-15T18:23:31.199Z,17.55
2017-11-15T18:25:59.675Z,13.85
2017-11-15T18:28:27.735Z,17.12
2017-11-15T18:30:55.902Z,23.02
2017-11-15T18:33:23.969Z,20.77
2017-11-15T18:35:52.024Z,16.17
2017-11-15T18:38:20.118Z,25.23
2017-11-15T18:40:48.163Z,16.83
2017-11-15T18:43:17.587Z,19.35
2017-11-15T18:45:45.576Z,20.45
2017-11-15T18:48:13.641Z,24.33
2017-11-15T18:50:41.694Z,27.48
2017-11-15T18:53:09.776Z,26.17
2017-11-15T18:55:38.976Z,28.48
2017-11-15T18:58:07.062Z,32.67
2017-11-15T19:00:35.114Z,34.80
2017-11-15T19:03:03.186Z,32.03
2017-11-15T19:05:31.243Z,35.10
2017-11-15T19:07:59.710Z,39.67
2017-11-15T19:10:28.536Z,35.35
2017-11-15T19:12:57.224Z,47.80
2017-11-15T19:15:25.706Z,55.95
2017-11-15T19:17:53.784Z,55.47
2017-11-15T19:20:22.617Z,46.90
2017-11-15T19:22:51.463Z,75.95
2017-11-15T19:25:19.914Z,43.50
2017-11-15T19:27:48.002Z,36.63
2017-11-15T19:30:16.455Z,30.58
2017-11-15T19:32:45.304Z,31.05
2017-11-15T19:35:13.355Z,31.27
2017-11-15T19:37:41.537Z,27.05
2017-11-15T19:40:10.315Z,34.00
2017-11-15T19:42:38.384Z,24.35
2017-11-15T19:45:06.459Z,31.73
2017-11-15T19:47:35.281Z,24.15
2017-11-15T19:50:03.386Z,23.23
2017-11-15T19:52:32.956Z,27.42
2017-11-15T19:55:01.036Z,26.02
2017-11-15T19:57:30.226Z,27.62
2017-11-15T19:59:59.673Z,28.25
2017-11-15T20:02:27.635Z,31.23
2017-11-15T20:04:57.052Z,23.38
2017-11-15T20:07:26.180Z,25.33
2017-11-15T20:09:54.281Z,27.95
2017-11-15T20:12:23.853Z,19.85
2017-11-15T20:14:51.914Z,22.52
2017-11-15T20:17:19.979Z,22.42
2017-11-15T20:19:48.051Z,26.40
2017-11-15T20:22:16.514Z,18.80
2017-11-15T20:24:45.346Z,19.45
2017-11-15T20:27:13.404Z,16.42
2017-11-15T20:29:41.472Z,15.13
2017-11-15T20:32:09.540Z,15.00
2017-11-15T20:34:38.043Z,15.77
2017-11-15T20:37:06.100Z,17.15
2017-11-15T20:39:34.184Z,15.23
2017-11-15T20:42:02.259Z,15.70
2017-11-15T20:44:30.316Z,11.57
2017-11-15T20:46:58.388Z,15.25
2017-11-15T20:49:26.459Z,16.95
2017-11-15T20:51:54.526Z,15.63
2017-11-15T20:54:22.588Z,14.87
2017-11-15T20:56:50.648Z,12.02
2017-11-15T20:59:19.485Z,14.30
2017-11-15T21:01:48.300Z,10.65
2017-11-15T21:04:16.367Z,11.30
2017-11-15T21:06:44.433Z,13.65
2017-11-15T21:09:12.512Z,14.32
2017-11-15T21:11:40.592Z,14.98
2017-11-15T21:14:08.644Z,16.90
2017-11-15T21:16:36.736Z,14.57
2017-11-15T21:19:04.802Z,14.30
2017-11-15T21:21:32.855Z,15.45
2017-11-15T21:24:00.945Z,16.48
2017-11-15T21:26:29.010Z,14.32
2017-11-15T21:28:57.067Z,21.33
2017-11-15T21:31:25.151Z,14.73
2017-11-15T21:33:53.918Z,16.80
2017-11-15T21:36:22.710Z,18.02
2017-11-15T21:38:50.771Z,14.43
2017-11-15T21:41:18.844Z,16.87
2017-11-15T21:43:46.924Z,14.25
2017-11-15T21:46:14.982Z,19.33
2017-11-15T21:48:43.059Z,15.48
2017-11-15T21:51:11.114Z,18.15
2017-11-15T21:53:39.194Z,17.67
2017-11-15T21:56:07.265Z,20.00
2017-11-15T21:58:35.327Z,16.80
2017-11-15T22:01:03.404Z,16.33
2017-11-15T22:03:31.451Z,12.90
2017-11-15T22:06:00.884Z,15.32
2017-11-15T22:08:28.847Z,12.95
2017-11-15T22:10:56.904Z,12.15
2017-11-15T22:13:24.983Z,13.80
2017-11-15T22:15:53.036Z,14.35
2017-11-15T22:18:21.855Z,17.35
2017-11-15T22:20:51.059Z,14.60
2017-11-15T22:23:19.118Z,17.35
2017-11-15T22:25:47.956Z,14.00
2017-11-15T22:28:16.011Z,13.82
2017-11-15T22:30:44.080Z,8.15
2017-11-15T22:33:12.132Z,6.30
2017-11-15T22:35:40.184Z,6.10
2017-11-15T22:38:08.247Z,5.45
2017-11-15T22:40:37.055Z,4.72
2017-11-15T22:43:05.134Z,5.85
2017-11-15T22:45:33.196Z,7.78
2017-11-15T22:48:01.264Z,7.47
2017-11-15T22:50:29.311Z,5.72
2017-11-15T22:52:58.154Z,5.43
2017-11-15T22:55:26.190Z,7.60
2017-11-15T22:57:54.247Z,6.75
2017-11-15T23:00:23.199Z,7.68
2017-11-15T23:02:51.640Z,6.45
2017-11-15T23:05:21.046Z,8.30
2017-11-15T23:07:49.029Z,5.60
2017-11-15T23:10:17.476Z,7.62
2017-11-15T23:12:46.283Z,5.00
2017-11-15T23:15:14.351Z,5.35
2017-11-15T23:17:42.412Z,5.10
2017-11-15T23:20:11.210Z,5.12
2017-11-15T23:22:39.269Z,6.22
2017-11-15T23:25:08.083Z,9.32
2017-11-15T23:27:36.168Z,8.10
2017-11-15T23:30:04.220Z,5.37
2017-11-15T23:32:32.275Z,7.55
2017-11-15T23:35:01.104Z,5.85
2017-11-15T23:37:29.157Z,6.30
2017-11-15T23:39:57.241Z,7.57
2017-11-15T23:42:25.292Z,4.85
2017-11-15T23:44:54.699Z,6.85
2017-11-15T23:47:23.440Z,7.18
2017-11-15T23:49:51.503Z,6.05
2017-11-15T23:52:19.563Z,7.40
2017-11-15T23:54:47.619Z,13.23
2017-11-15T23:57:16.155Z,7.80
2017-11-15T23:59:44.207Z,7.00
